Grahamville, Vermont
Current Conditions -  °F | °C
As of 10:54 PM on Sunday 25 Jan 2015 (Local Time) from KVSF Reporting Station
Clear Clear  
Wind Chill:   Ceiling: Unl
Heat Index: 10°   Visibility: 10mi
Dew Point: -2°   Wind: 6mph
Humidity: 58%   Direction: 20°NNE
Pressure: 30.03"   Gusts: NA
Location:  43.3729°N, 72.7116°W
Report Text: KVSF 260354Z AUTO 02005KT 10SM CLR M12/M19 A3003 RMK AO2 SLP182 T11221189 TSNO
Loading
Personal Weather Stations






























Interactive Weather Map New forecast layout! Learn more

10-Day Weather Forecast

Advertisements
Track Severe Weather on mobile